sensor_id;sensor_type;location;lat;lon;timestamp;temperature;humidity
35531;DHT22;21637;53.352;-6.356;2022-12-05T00:02:24;7.60;99.90
35531;DHT22;21637;53.352;-6.356;2022-12-05T00:04:50;7.60;99.90
35531;DHT22;21637;53.352;-6.356;2022-12-05T00:07:15;7.70;99.90
35531;DHT22;21637;53.352;-6.356;2022-12-05T00:09:41;7.70;99.90
35531;DHT22;21637;53.352;-6.356;2022-12-05T00:12:06;7.70;99.90
35531;DHT22;21637;53.352;-6.356;2022-12-05T00:14:32;7.80;99.90
35531;DHT22;21637;53.352;-6.356;2022-12-05T00:16:57;7.80;99.90
35531;DHT22;21637;53.352;-6.356;2022-12-05T00:19:23;7.90;99.90
35531;DHT22;21637;53.352;-6.356;2022-12-05T00:21:49;7.80;99.90
35531;DHT22;21637;53.352;-6.356;2022-12-05T00:24:15;7.80;99.90
35531;DHT22;21637;53.352;-6.356;2022-12-05T00:26:40;7.80;99.90
35531;DHT22;21637;53.352;-6.356;2022-12-05T00:29:06;7.90;99.90
35531;DHT22;21637;53.352;-6.356;2022-12-05T00:31:32;7.80;99.90
35531;DHT22;21637;53.352;-6.356;2022-12-05T00:34:01;7.90;99.90
35531;DHT22;21637;53.352;-6.356;2022-12-05T00:36:28;7.80;99.90
35531;DHT22;21637;53.352;-6.356;2022-12-05T00:38:54;7.90;99.90
35531;DHT22;21637;53.352;-6.356;2022-12-05T00:41:21;7.90;99.90
35531;DHT22;21637;53.352;-6.356;2022-12-05T00:43:47;7.90;99.90
35531;DHT22;21637;53.352;-6.356;2022-12-05T00:46:14;7.80;99.90
35531;DHT22;21637;53.352;-6.356;2022-12-05T00:48:40;7.80;99.90
35531;DHT22;21637;53.352;-6.356;2022-12-05T00:51:25;7.80;99.90
35531;DHT22;21637;53.352;-6.356;2022-12-05T00:53:52;7.70;99.90
35531;DHT22;21637;53.352;-6.356;2022-12-05T00:56:19;7.70;99.90
35531;DHT22;21637;53.352;-6.356;2022-12-05T00:58:45;7.70;99.90
35531;DHT22;21637;53.352;-6.356;2022-12-05T01:01:15;7.70;99.90
35531;DHT22;21637;53.352;-6.356;2022-12-05T01:03:41;7.70;99.90
35531;DHT22;21637;53.352;-6.356;2022-12-05T01:06:08;7.60;99.90
35531;DHT22;21637;53.352;-6.356;2022-12-05T01:08:35;7.60;99.90
35531;DHT22;21637;53.352;-6.356;2022-12-05T01:11:01;7.60;99.90
35531;DHT22;21637;53.352;-6.356;2022-12-05T01:13:27;7.60;99.90
35531;DHT22;21637;53.352;-6.356;2022-12-05T01:15:53;7.60;99.90
35531;DHT22;21637;53.352;-6.356;2022-12-05T01:18:20;7.60;99.90
35531;DHT22;21637;53.352;-6.356;2022-12-05T01:20:46;7.60;99.90
35531;DHT22;21637;53.352;-6.356;2022-12-05T01:23:12;7.60;99.90
35531;DHT22;21637;53.352;-6.356;2022-12-05T01:25:44;7.60;99.90
35531;DHT22;21637;53.352;-6.356;2022-12-05T01:28:10;7.60;99.90
35531;DHT22;21637;53.352;-6.356;2022-12-05T01:30:37;7.60;99.90
35531;DHT22;21637;53.352;-6.356;2022-12-05T01:33:04;7.60;99.90
35531;DHT22;21637;53.352;-6.356;2022-12-05T01:35:30;7.60;99.90
35531;DHT22;21637;53.352;-6.356;2022-12-05T01:37:56;7.60;99.90
35531;DHT22;21637;53.352;-6.356;2022-12-05T01:40:22;7.50;99.90
35531;DHT22;21637;53.352;-6.356;2022-12-05T01:42:47;7.50;99.90
35531;DHT22;21637;53.352;-6.356;2022-12-05T01:45:14;7.40;99.90
35531;DHT22;21637;53.352;-6.356;2022-12-05T01:47:40;7.40;99.90
35531;DHT22;21637;53.352;-6.356;2022-12-05T01:50:06;7.40;99.90
35531;DHT22;21637;53.352;-6.356;2022-12-05T01:52:32;7.30;99.90
35531;DHT22;21637;53.352;-6.356;2022-12-05T01:55:01;7.30;99.90
35531;DHT22;21637;53.352;-6.356;2022-12-05T01:57:27;7.20;99.90
35531;DHT22;21637;53.352;-6.356;2022-12-05T01:59:54;7.20;99.90
35531;DHT22;21637;53.352;-6.356;2022-12-05T02:02:21;7.20;99.90
35531;DHT22;21637;53.352;-6.356;2022-12-05T02:04:49;7.20;99.90
35531;DHT22;21637;53.352;-6.356;2022-12-05T02:07:17;7.20;99.90
35531;DHT22;21637;53.352;-6.356;2022-12-05T02:09:43;7.20;99.90
35531;DHT22;21637;53.352;-6.356;2022-12-05T02:12:10;7.20;99.90
35531;DHT22;21637;53.352;-6.356;2022-12-05T02:19:58;7.30;99.90
35531;DHT22;21637;53.352;-6.356;2022-12-05T02:35:18;7.40;99.90
35531;DHT22;21637;53.352;-6.356;2022-12-05T02:43:17;7.60;99.90
35531;DHT22;21637;53.352;-6.356;2022-12-05T02:45:44;7.60;99.90
35531;DHT22;21637;53.352;-6.356;2022-12-05T02:48:11;7.50;99.90
35531;DHT22;21637;53.352;-6.356;2022-12-05T02:50:38;7.50;99.90
35531;DHT22;21637;53.352;-6.356;2022-12-05T02:53:07;7.40;99.90
35531;DHT22;21637;53.352;-6.356;2022-12-05T02:55:33;7.30;99.90
35531;DHT22;21637;53.352;-6.356;2022-12-05T02:58:00;7.20;99.90
35531;DHT22;21637;53.352;-6.356;2022-12-05T03:00:27;7.20;99.90
35531;DHT22;21637;53.352;-6.356;2022-12-05T03:02:55;7.10;99.90
35531;DHT22;21637;53.352;-6.356;2022-12-05T03:07:49;7.00;99.90
35531;DHT22;21637;53.352;-6.356;2022-12-05T03:10:16;7.00;99.90
35531;DHT22;21637;53.352;-6.356;2022-12-05T03:12:45;7.00;99.90
35531;DHT22;21637;53.352;-6.356;2022-12-05T03:15:26;6.90;99.90
35531;DHT22;21637;53.352;-6.356;2022-12-05T03:17:55;6.80;99.90
35531;DHT22;21637;53.352;-6.356;2022-12-05T03:20:32;6.90;99.90
35531;DHT22;21637;53.352;-6.356;2022-12-05T03:23:02;6.80;99.90
35531;DHT22;21637;53.352;-6.356;2022-12-05T03:25:43;6.80;99.90
35531;DHT22;21637;53.352;-6.356;2022-12-05T03:31:00;6.80;99.90
35531;DHT22;21637;53.352;-6.356;2022-12-05T03:33:27;6.80;99.90
35531;DHT22;21637;53.352;-6.356;2022-12-05T03:40:55;6.90;99.90
35531;DHT22;21637;53.352;-6.356;2022-12-05T03:45:58;6.80;99.90
35531;DHT22;21637;53.352;-6.356;2022-12-05T03:48:34;6.80;99.90
35531;DHT22;21637;53.352;-6.356;2022-12-05T03:51:02;6.80;99.90
35531;DHT22;21637;53.352;-6.356;2022-12-05T03:53:33;6.80;99.90
35531;DHT22;21637;53.352;-6.356;2022-12-05T03:56:22;6.80;99.90
35531;DHT22;21637;53.352;-6.356;2022-12-05T03:58:51;6.80;99.90
35531;DHT22;21637;53.352;-6.356;2022-12-05T04:01:18;6.80;99.90
35531;DHT22;21637;53.352;-6.356;2022-12-05T04:03:47;6.80;99.90
35531;DHT22;21637;53.352;-6.356;2022-12-05T04:08:46;6.70;99.90
35531;DHT22;21637;53.352;-6.356;2022-12-05T04:11:17;6.70;99.90
35531;DHT22;21637;53.352;-6.356;2022-12-05T04:13:48;6.70;99.90
35531;DHT22;21637;53.352;-6.356;2022-12-05T04:20:03;6.70;99.90
35531;DHT22;21637;53.352;-6.356;2022-12-05T04:22:26;6.70;99.90
35531;DHT22;21637;53.352;-6.356;2022-12-05T04:24:53;6.80;99.90
35531;DHT22;21637;53.352;-6.356;2022-12-05T04:27:39;6.70;99.90
35531;DHT22;21637;53.352;-6.356;2022-12-05T04:32:37;6.80;99.90
35531;DHT22;21637;53.352;-6.356;2022-12-05T04:35:06;6.80;99.90
35531;DHT22;21637;53.352;-6.356;2022-12-05T04:37:34;6.80;99.90
35531;DHT22;21637;53.352;-6.356;2022-12-05T04:40:07;6.80;99.90
35531;DHT22;21637;53.352;-6.356;2022-12-05T04:42:34;6.90;99.90
35531;DHT22;21637;53.352;-6.356;2022-12-05T04:45:02;6.90;99.90
35531;DHT22;21637;53.352;-6.356;2022-12-05T04:47:30;6.80;99.90
35531;DHT22;21637;53.352;-6.356;2022-12-05T04:49:56;6.80;99.90
35531;DHT22;21637;53.352;-6.356;2022-12-05T04:52:24;6.80;99.90
35531;DHT22;21637;53.352;-6.356;2022-12-05T04:55:02;6.80;99.90
35531;DHT22;21637;53.352;-6.356;2022-12-05T04:57:30;6.80;99.90
35531;DHT22;21637;53.352;-6.356;2022-12-05T04:59:57;6.80;99.90
35531;DHT22;21637;53.352;-6.356;2022-12-05T05:05:15;6.80;99.90
35531;DHT22;21637;53.352;-6.356;2022-12-05T05:07:46;6.80;99.90
35531;DHT22;21637;53.352;-6.356;2022-12-05T05:10:13;6.90;99.90
35531;DHT22;21637;53.352;-6.356;2022-12-05T05:12:39;6.80;99.90
35531;DHT22;21637;53.352;-6.356;2022-12-05T05:15:05;6.90;99.90
35531;DHT22;21637;53.352;-6.356;2022-12-05T05:17:31;6.90;99.90
35531;DHT22;21637;53.352;-6.356;2022-12-05T05:19:56;6.80;99.90
35531;DHT22;21637;53.352;-6.356;2022-12-05T05:22:42;6.80;99.90
35531;DHT22;21637;53.352;-6.356;2022-12-05T05:25:07;6.80;99.90
35531;DHT22;21637;53.352;-6.356;2022-12-05T05:27:33;6.80;99.90
35531;DHT22;21637;53.352;-6.356;2022-12-05T05:29:58;6.80;99.90
35531;DHT22;21637;53.352;-6.356;2022-12-05T05:32:24;6.80;99.90
35531;DHT22;21637;53.352;-6.356;2022-12-05T05:34:49;6.80;99.90
35531;DHT22;21637;53.352;-6.356;2022-12-05T05:37:15;6.80;99.90
35531;DHT22;21637;53.352;-6.356;2022-12-05T05:39:40;6.90;99.90
35531;DHT22;21637;53.352;-6.356;2022-12-05T05:42:06;6.90;99.90
35531;DHT22;21637;53.352;-6.356;2022-12-05T05:44:31;6.90;99.90
35531;DHT22;21637;53.352;-6.356;2022-12-05T05:46:57;6.90;99.90
35531;DHT22;21637;53.352;-6.356;2022-12-05T05:49:23;6.80;99.90
35531;DHT22;21637;53.352;-6.356;2022-12-05T05:51:48;6.80;99.90
35531;DHT22;21637;53.352;-6.356;2022-12-05T05:54:14;6.80;99.90
35531;DHT22;21637;53.352;-6.356;2022-12-05T05:56:39;6.80;99.90
35531;DHT22;21637;53.352;-6.356;2022-12-05T05:59:05;6.80;99.90
35531;DHT22;21637;53.352;-6.356;2022-12-05T06:01:30;6.80;99.90
35531;DHT22;21637;53.352;-6.356;2022-12-05T06:03:56;6.80;99.90
35531;DHT22;21637;53.352;-6.356;2022-12-05T06:06:24;6.80;99.90
35531;DHT22;21637;53.352;-6.356;2022-12-05T06:08:49;6.90;99.90
35531;DHT22;21637;53.352;-6.356;2022-12-05T06:11:19;6.90;99.90
35531;DHT22;21637;53.352;-6.356;2022-12-05T06:13:45;7.00;99.90
35531;DHT22;21637;53.352;-6.356;2022-12-05T06:16:11;7.00;99.90
35531;DHT22;21637;53.352;-6.356;2022-12-05T06:18:37;7.00;99.90
35531;DHT22;21637;53.352;-6.356;2022-12-05T06:21:03;7.00;99.90
35531;DHT22;21637;53.352;-6.356;2022-12-05T06:23:32;7.00;99.90
35531;DHT22;21637;53.352;-6.356;2022-12-05T06:25:58;7.10;99.90
35531;DHT22;21637;53.352;-6.356;2022-12-05T06:28:24;7.10;99.90
35531;DHT22;21637;53.352;-6.356;2022-12-05T06:30:50;7.10;99.90
35531;DHT22;21637;53.352;-6.356;2022-12-05T06:33:16;7.10;99.90
35531;DHT22;21637;53.352;-6.356;2022-12-05T06:35:42;7.10;99.90
35531;DHT22;21637;53.352;-6.356;2022-12-05T06:38:08;7.10;99.90
35531;DHT22;21637;53.352;-6.356;2022-12-05T06:40:38;7.10;99.90
35531;DHT22;21637;53.352;-6.356;2022-12-05T06:43:03;7.10;99.90
35531;DHT22;21637;53.352;-6.356;2022-12-05T06:45:29;7.10;99.90
35531;DHT22;21637;53.352;-6.356;2022-12-05T06:47:54;7.10;99.90
35531;DHT22;21637;53.352;-6.356;2022-12-05T06:50:20;7.00;99.90
35531;DHT22;21637;53.352;-6.356;2022-12-05T06:52:45;7.00;99.90
35531;DHT22;21637;53.352;-6.356;2022-12-05T06:55:11;7.00;99.90
35531;DHT22;21637;53.352;-6.356;2022-12-05T06:57:37;7.00;99.90
35531;DHT22;21637;53.352;-6.356;2022-12-05T07:00:03;7.00;99.90
35531;DHT22;21637;53.352;-6.356;2022-12-05T07:02:51;7.00;99.90
35531;DHT22;21637;53.352;-6.356;2022-12-05T07:05:16;7.10;99.90
35531;DHT22;21637;53.352;-6.356;2022-12-05T07:07:42;7.20;99.90
35531;DHT22;21637;53.352;-6.356;2022-12-05T07:10:07;7.20;99.90
35531;DHT22;21637;53.352;-6.356;2022-12-05T07:12:33;7.20;99.90
35531;DHT22;21637;53.352;-6.356;2022-12-05T07:14:59;7.10;99.90
35531;DHT22;21637;53.352;-6.356;2022-12-05T07:17:25;7.10;99.90
35531;DHT22;21637;53.352;-6.356;2022-12-05T07:19:50;7.00;99.90
35531;DHT22;21637;53.352;-6.356;2022-12-05T07:22:17;7.00;99.90
35531;DHT22;21637;53.352;-6.356;2022-12-05T07:24:43;7.10;99.90
35531;DHT22;21637;53.352;-6.356;2022-12-05T07:27:09;7.10;99.90
35531;DHT22;21637;53.352;-6.356;2022-12-05T07:29:34;7.10;99.90
35531;DHT22;21637;53.352;-6.356;2022-12-05T07:32:01;7.10;99.90
35531;DHT22;21637;53.352;-6.356;2022-12-05T07:34:26;7.00;99.90
35531;DHT22;21637;53.352;-6.356;2022-12-05T07:36:52;7.00;99.90
35531;DHT22;21637;53.352;-6.356;2022-12-05T07:39:17;7.00;99.90
35531;DHT22;21637;53.352;-6.356;2022-12-05T07:41:43;7.00;99.90
35531;DHT22;21637;53.352;-6.356;2022-12-05T07:44:09;7.10;99.90
35531;DHT22;21637;53.352;-6.356;2022-12-05T07:46:36;7.00;99.90
35531;DHT22;21637;53.352;-6.356;2022-12-05T07:49:01;7.00;99.90
35531;DHT22;21637;53.352;-6.356;2022-12-05T07:51:27;7.00;99.90
35531;DHT22;21637;53.352;-6.356;2022-12-05T07:53:53;7.00;99.90
35531;DHT22;21637;53.352;-6.356;2022-12-05T07:56:18;7.10;99.90
35531;DHT22;21637;53.352;-6.356;2022-12-05T07:58:45;7.10;99.90
35531;DHT22;21637;53.352;-6.356;2022-12-05T08:01:15;7.10;99.90
35531;DHT22;21637;53.352;-6.356;2022-12-05T08:03:40;7.10;99.90
35531;DHT22;21637;53.352;-6.356;2022-12-05T08:06:07;7.10;99.90
35531;DHT22;21637;53.352;-6.356;2022-12-05T08:08:33;7.00;99.90
35531;DHT22;21637;53.352;-6.356;2022-12-05T08:11:09;7.00;99.90
35531;DHT22;21637;53.352;-6.356;2022-12-05T08:13:35;7.00;99.90
35531;DHT22;21637;53.352;-6.356;2022-12-05T08:16:02;7.00;99.90
35531;DHT22;21637;53.352;-6.356;2022-12-05T08:18:28;7.00;99.90
35531;DHT22;21637;53.352;-6.356;2022-12-05T08:20:53;6.90;99.90
35531;DHT22;21637;53.352;-6.356;2022-12-05T08:23:19;6.90;99.90
35531;DHT22;21637;53.352;-6.356;2022-12-05T08:25:44;6.90;99.90
35531;DHT22;21637;53.352;-6.356;2022-12-05T08:28:10;6.90;99.90
35531;DHT22;21637;53.352;-6.356;2022-12-05T08:30:36;6.90;99.90
35531;DHT22;21637;53.352;-6.356;2022-12-05T08:33:01;7.00;99.90
35531;DHT22;21637;53.352;-6.356;2022-12-05T08:35:27;7.00;99.90
35531;DHT22;21637;53.352;-6.356;2022-12-05T08:37:52;7.00;99.90
35531;DHT22;21637;53.352;-6.356;2022-12-05T08:40:18;7.00;99.90
35531;DHT22;21637;53.352;-6.356;2022-12-05T08:42:43;7.00;99.90
35531;DHT22;21637;53.352;-6.356;2022-12-05T08:45:09;7.00;99.90
35531;DHT22;21637;53.352;-6.356;2022-12-05T08:47:35;7.00;99.90
35531;DHT22;21637;53.352;-6.356;2022-12-05T08:50:00;7.00;99.90
35531;DHT22;21637;53.352;-6.356;2022-12-05T08:52:26;7.10;99.90
35531;DHT22;21637;53.352;-6.356;2022-12-05T08:54:51;7.10;99.90
35531;DHT22;21637;53.352;-6.356;2022-12-05T08:57:17;7.20;99.90
35531;DHT22;21637;53.352;-6.356;2022-12-05T08:59:43;7.20;99.90
35531;DHT22;21637;53.352;-6.356;2022-12-05T09:02:09;7.20;99.90
35531;DHT22;21637;53.352;-6.356;2022-12-05T09:04:35;7.20;99.90
35531;DHT22;21637;53.352;-6.356;2022-12-05T09:07:01;7.20;99.90
35531;DHT22;21637;53.352;-6.356;2022-12-05T09:09:27;7.20;99.90
35531;DHT22;21637;53.352;-6.356;2022-12-05T09:11:53;7.20;99.90
35531;DHT22;21637;53.352;-6.356;2022-12-05T09:14:19;7.20;99.90
35531;DHT22;21637;53.352;-6.356;2022-12-05T09:16:45;7.20;99.90
35531;DHT22;21637;53.352;-6.356;2022-12-05T09:19:15;7.20;99.90
35531;DHT22;21637;53.352;-6.356;2022-12-05T09:21:41;7.20;99.90
35531;DHT22;21637;53.352;-6.356;2022-12-05T09:24:06;7.10;99.90
35531;DHT22;21637;53.352;-6.356;2022-12-05T09:26:32;7.20;99.90
35531;DHT22;21637;53.352;-6.356;2022-12-05T09:28:58;7.10;99.90
35531;DHT22;21637;53.352;-6.356;2022-12-05T09:31:24;7.10;99.90
35531;DHT22;21637;53.352;-6.356;2022-12-05T09:33:51;7.10;99.90
35531;DHT22;21637;53.352;-6.356;2022-12-05T09:36:18;7.10;99.90
35531;DHT22;21637;53.352;-6.356;2022-12-05T09:38:44;7.10;99.90
35531;DHT22;21637;53.352;-6.356;2022-12-05T09:46:10;7.10;99.90
35531;DHT22;21637;53.352;-6.356;2022-12-05T09:48:41;7.10;99.90
35531;DHT22;21637;53.352;-6.356;2022-12-05T09:51:09;7.00;99.90
35531;DHT22;21637;53.352;-6.356;2022-12-05T09:53:38;7.10;99.90
35531;DHT22;21637;53.352;-6.356;2022-12-05T09:56:05;7.10;99.90
35531;DHT22;21637;53.352;-6.356;2022-12-05T10:03:38;7.20;99.90
35531;DHT22;21637;53.352;-6.356;2022-12-05T10:16:34;7.80;99.90
35531;DHT22;21637;53.352;-6.356;2022-12-05T10:19:10;7.80;99.90
35531;DHT22;21637;53.352;-6.356;2022-12-05T10:24:13;7.90;99.90
35531;DHT22;21637;53.352;-6.356;2022-12-05T10:26:50;7.90;99.90
35531;DHT22;21637;53.352;-6.356;2022-12-05T10:31:49;7.90;99.90
35531;DHT22;21637;53.352;-6.356;2022-12-05T10:34:32;8.00;99.90
35531;DHT22;21637;53.352;-6.356;2022-12-05T10:37:07;8.00;99.90
35531;DHT22;21637;53.352;-6.356;2022-12-05T10:39:34;8.20;99.90
35531;DHT22;21637;53.352;-6.356;2022-12-05T10:42:00;8.10;99.90
35531;DHT22;21637;53.352;-6.356;2022-12-05T10:44:25;8.10;99.90
35531;DHT22;21637;53.352;-6.356;2022-12-05T10:46:51;8.00;99.90
35531;DHT22;21637;53.352;-6.356;2022-12-05T10:49:17;8.00;99.90
35531;DHT22;21637;53.352;-6.356;2022-12-05T10:51:43;8.00;99.90
35531;DHT22;21637;53.352;-6.356;2022-12-05T10:54:14;7.90;99.90
35531;DHT22;21637;53.352;-6.356;2022-12-05T10:56:45;7.90;99.90
35531;DHT22;21637;53.352;-6.356;2022-12-05T10:59:16;7.90;99.90
35531;DHT22;21637;53.352;-6.356;2022-12-05T11:01:44;8.00;99.90
35531;DHT22;21637;53.352;-6.356;2022-12-05T11:07:04;7.90;99.90
35531;DHT22;21637;53.352;-6.356;2022-12-05T11:09:36;8.00;99.90
35531;DHT22;21637;53.352;-6.356;2022-12-05T11:14:29;7.90;99.90
35531;DHT22;21637;53.352;-6.356;2022-12-05T11:16:58;7.90;99.90
35531;DHT22;21637;53.352;-6.356;2022-12-05T11:19:25;7.90;99.90
35531;DHT22;21637;53.352;-6.356;2022-12-05T11:21:52;7.90;99.90
35531;DHT22;21637;53.352;-6.356;2022-12-05T11:24:28;7.90;99.90
35531;DHT22;21637;53.352;-6.356;2022-12-05T11:26:55;8.00;99.90
35531;DHT22;21637;53.352;-6.356;2022-12-05T11:31:52;8.00;99.90
35531;DHT22;21637;53.352;-6.356;2022-12-05T11:34:29;8.00;99.90
35531;DHT22;21637;53.352;-6.356;2022-12-05T11:36:56;8.00;99.90
35531;DHT22;21637;53.352;-6.356;2022-12-05T11:39:23;8.10;99.90
35531;DHT22;21637;53.352;-6.356;2022-12-05T11:44:33;8.00;99.90
35531;DHT22;21637;53.352;-6.356;2022-12-05T11:55:28;7.90;99.90
35531;DHT22;21637;53.352;-6.356;2022-12-05T12:05:41;8.00;99.90
35531;DHT22;21637;53.352;-6.356;2022-12-05T12:10:47;8.00;99.90
35531;DHT22;21637;53.352;-6.356;2022-12-05T12:16:27;7.90;99.90
35531;DHT22;21637;53.352;-6.356;2022-12-05T12:19:01;7.90;99.90
35531;DHT22;21637;53.352;-6.356;2022-12-05T12:21:37;7.90;99.90
35531;DHT22;21637;53.352;-6.356;2022-12-05T12:26:45;7.90;99.90
35531;DHT22;21637;53.352;-6.356;2022-12-05T12:34:26;8.00;99.90
35531;DHT22;21637;53.352;-6.356;2022-12-05T12:36:54;7.90;99.90
35531;DHT22;21637;53.352;-6.356;2022-12-05T12:39:33;7.80;99.90
35531;DHT22;21637;53.352;-6.356;2022-12-05T12:47:03;7.80;99.90
35531;DHT22;21637;53.352;-6.356;2022-12-05T12:49:34;7.70;99.90
35531;DHT22;21637;53.352;-6.356;2022-12-05T12:52:04;7.70;99.90
35531;DHT22;21637;53.352;-6.356;2022-12-05T13:05:23;7.80;99.90
35531;DHT22;21637;53.352;-6.356;2022-12-05T13:07:56;7.80;99.90
35531;DHT22;21637;53.352;-6.356;2022-12-05T13:10:25;7.70;99.90
35531;DHT22;21637;53.352;-6.356;2022-12-05T13:12:53;7.60;99.90
35531;DHT22;21637;53.352;-6.356;2022-12-05T13:15:23;7.60;99.90
35531;DHT22;21637;53.352;-6.356;2022-12-05T13:17:54;7.60;99.90
35531;DHT22;21637;53.352;-6.356;2022-12-05T13:20:20;7.60;99.90
35531;DHT22;21637;53.352;-6.356;2022-12-05T13:22:47;7.60;99.90
35531;DHT22;21637;53.352;-6.356;2022-12-05T13:25:14;7.60;99.90
35531;DHT22;21637;53.352;-6.356;2022-12-05T13:27:39;7.60;99.90
35531;DHT22;21637;53.352;-6.356;2022-12-05T13:30:17;7.70;99.90
35531;DHT22;21637;53.352;-6.356;2022-12-05T13:32:43;7.70;99.90
35531;DHT22;21637;53.352;-6.356;2022-12-05T13:35:10;7.80;99.90
35531;DHT22;21637;53.352;-6.356;2022-12-05T13:37:36;7.90;99.90
35531;DHT22;21637;53.352;-6.356;2022-12-05T13:40:28;7.90;99.90
35531;DHT22;21637;53.352;-6.356;2022-12-05T13:43:14;7.70;99.90
35531;DHT22;21637;53.352;-6.356;2022-12-05T13:45:40;7.70;99.90
35531;DHT22;21637;53.352;-6.356;2022-12-05T13:48:12;7.60;99.90
35531;DHT22;21637;53.352;-6.356;2022-12-05T13:50:40;7.60;99.90
35531;DHT22;21637;53.352;-6.356;2022-12-05T13:53:22;7.60;99.90
35531;DHT22;21637;53.352;-6.356;2022-12-05T13:55:59;7.60;99.90
35531;DHT22;21637;53.352;-6.356;2022-12-05T14:00:50;7.70;99.90
35531;DHT22;21637;53.352;-6.356;2022-12-05T14:06:05;7.60;99.90
35531;DHT22;21637;53.352;-6.356;2022-12-05T14:15:55;7.50;99.90
35531;DHT22;21637;53.352;-6.356;2022-12-05T14:18:42;7.50;99.90
35531;DHT22;21637;53.352;-6.356;2022-12-05T14:31:58;7.50;99.90
35531;DHT22;21637;53.352;-6.356;2022-12-05T14:34:26;7.50;99.90
35531;DHT22;21637;53.352;-6.356;2022-12-05T14:41:56;7.50;99.90
35531;DHT22;21637;53.352;-6.356;2022-12-05T14:44:22;7.60;99.90
35531;DHT22;21637;53.352;-6.356;2022-12-05T14:46:48;7.60;99.90
35531;DHT22;21637;53.352;-6.356;2022-12-05T14:49:33;7.50;99.90
35531;DHT22;21637;53.352;-6.356;2022-12-05T14:51:59;7.50;99.90
35531;DHT22;21637;53.352;-6.356;2022-12-05T14:54:32;7.50;99.90
35531;DHT22;21637;53.352;-6.356;2022-12-05T14:57:02;7.50;99.90
35531;DHT22;21637;53.352;-6.356;2022-12-05T15:02:15;7.40;99.90
35531;DHT22;21637;53.352;-6.356;2022-12-05T15:07:13;7.30;99.90
35531;DHT22;21637;53.352;-6.356;2022-12-05T15:12:12;7.20;99.90
35531;DHT22;21637;53.352;-6.356;2022-12-05T15:14:42;7.20;99.90
35531;DHT22;21637;53.352;-6.356;2022-12-05T15:17:10;7.20;99.90
35531;DHT22;21637;53.352;-6.356;2022-12-05T15:19:46;7.20;99.90
35531;DHT22;21637;53.352;-6.356;2022-12-05T15:22:15;7.20;99.90
35531;DHT22;21637;53.352;-6.356;2022-12-05T15:24:41;7.20;99.90
35531;DHT22;21637;53.352;-6.356;2022-12-05T15:27:09;7.20;99.90
35531;DHT22;21637;53.352;-6.356;2022-12-05T15:29:36;7.20;99.90
35531;DHT22;21637;53.352;-6.356;2022-12-05T15:32:02;7.20;99.90
35531;DHT22;21637;53.352;-6.356;2022-12-05T15:37:12;7.20;99.90
35531;DHT22;21637;53.352;-6.356;2022-12-05T15:39:53;7.20;99.90
35531;DHT22;21637;53.352;-6.356;2022-12-05T15:42:20;7.20;99.90
35531;DHT22;21637;53.352;-6.356;2022-12-05T15:44:46;7.20;99.90
35531;DHT22;21637;53.352;-6.356;2022-12-05T15:47:19;7.10;99.90
35531;DHT22;21637;53.352;-6.356;2022-12-05T15:49:45;7.10;99.90
35531;DHT22;21637;53.352;-6.356;2022-12-05T15:52:22;7.10;99.90
35531;DHT22;21637;53.352;-6.356;2022-12-05T15:54:49;7.10;99.90
35531;DHT22;21637;53.352;-6.356;2022-12-05T15:57:23;7.10;99.90
35531;DHT22;21637;53.352;-6.356;2022-12-05T15:59:56;7.10;99.90
35531;DHT22;21637;53.352;-6.356;2022-12-05T16:02:29;7.10;99.90
35531;DHT22;21637;53.352;-6.356;2022-12-05T16:04:58;7.10;99.90
35531;DHT22;21637;53.352;-6.356;2022-12-05T16:07:25;7.10;99.90
35531;DHT22;21637;53.352;-6.356;2022-12-05T16:09:54;7.10;99.90
35531;DHT22;21637;53.352;-6.356;2022-12-05T16:14:48;7.10;99.90
35531;DHT22;21637;53.352;-6.356;2022-12-05T16:17:15;7.10;99.90
35531;DHT22;21637;53.352;-6.356;2022-12-05T16:19:40;7.10;99.90
35531;DHT22;21637;53.352;-6.356;2022-12-05T16:24:46;7.20;99.90
35531;DHT22;21637;53.352;-6.356;2022-12-05T16:27:24;7.20;99.90
35531;DHT22;21637;53.352;-6.356;2022-12-05T16:30:17;7.20;99.90
35531;DHT22;21637;53.352;-6.356;2022-12-05T16:32:43;7.20;99.90
35531;DHT22;21637;53.352;-6.356;2022-12-05T16:40:27;7.30;99.90
35531;DHT22;21637;53.352;-6.356;2022-12-05T16:43:06;7.40;99.90
35531;DHT22;21637;53.352;-6.356;2022-12-05T16:45:41;7.30;99.90
35531;DHT22;21637;53.352;-6.356;2022-12-05T16:48:13;7.30;99.90
35531;DHT22;21637;53.352;-6.356;2022-12-05T16:50:40;7.30;99.90
35531;DHT22;21637;53.352;-6.356;2022-12-05T16:55:37;7.30;99.90
35531;DHT22;21637;53.352;-6.356;2022-12-05T16:58:03;7.40;99.90
35531;DHT22;21637;53.352;-6.356;2022-12-05T17:00:29;7.40;99.90
35531;DHT22;21637;53.352;-6.356;2022-12-05T17:02:58;7.40;99.90
35531;DHT22;21637;53.352;-6.356;2022-12-05T17:05:24;7.40;99.90
35531;DHT22;21637;53.352;-6.356;2022-12-05T17:07:50;7.40;99.90
35531;DHT22;21637;53.352;-6.356;2022-12-05T17:10:16;7.50;99.90
35531;DHT22;21637;53.352;-6.356;2022-12-05T17:12:42;7.50;99.90
35531;DHT22;21637;53.352;-6.356;2022-12-05T17:15:17;7.50;99.90
35531;DHT22;21637;53.352;-6.356;2022-12-05T17:17:43;7.50;99.90
35531;DHT22;21637;53.352;-6.356;2022-12-05T17:20:08;7.50;99.90
35531;DHT22;21637;53.352;-6.356;2022-12-05T17:22:34;7.60;99.90
35531;DHT22;21637;53.352;-6.356;2022-12-05T17:24:59;7.60;99.90
35531;DHT22;21637;53.352;-6.356;2022-12-05T17:27:25;7.60;99.90
35531;DHT22;21637;53.352;-6.356;2022-12-05T17:29:51;7.70;99.90
35531;DHT22;21637;53.352;-6.356;2022-12-05T17:32:16;7.70;99.90
35531;DHT22;21637;53.352;-6.356;2022-12-05T17:34:42;7.70;99.90
35531;DHT22;21637;53.352;-6.356;2022-12-05T17:37:07;7.60;99.90
35531;DHT22;21637;53.352;-6.356;2022-12-05T17:39:33;7.70;99.90
35531;DHT22;21637;53.352;-6.356;2022-12-05T17:41:59;7.60;99.90
35531;DHT22;21637;53.352;-6.356;2022-12-05T17:44:24;7.70;99.90
35531;DHT22;21637;53.352;-6.356;2022-12-05T17:46:50;7.70;99.90
35531;DHT22;21637;53.352;-6.356;2022-12-05T17:49:16;7.70;99.90
35531;DHT22;21637;53.352;-6.356;2022-12-05T17:51:42;7.70;99.90
35531;DHT22;21637;53.352;-6.356;2022-12-05T17:54:08;7.70;99.90
35531;DHT22;21637;53.352;-6.356;2022-12-05T17:56:33;7.60;99.90
35531;DHT22;21637;53.352;-6.356;2022-12-05T17:58:59;7.60;99.90
35531;DHT22;21637;53.352;-6.356;2022-12-05T18:01:24;7.60;99.90
35531;DHT22;21637;53.352;-6.356;2022-12-05T18:03:50;7.50;99.90
35531;DHT22;21637;53.352;-6.356;2022-12-05T18:06:16;7.50;99.90
35531;DHT22;21637;53.352;-6.356;2022-12-05T18:08:42;7.40;99.90
35531;DHT22;21637;53.352;-6.356;2022-12-05T18:11:09;7.50;99.90
35531;DHT22;21637;53.352;-6.356;2022-12-05T18:13:35;7.50;99.90
35531;DHT22;21637;53.352;-6.356;2022-12-05T18:16:01;7.40;99.90
35531;DHT22;21637;53.352;-6.356;2022-12-05T18:18:27;7.40;99.90
35531;DHT22;21637;53.352;-6.356;2022-12-05T18:21:06;7.50;99.90
35531;DHT22;21637;53.352;-6.356;2022-12-05T18:23:33;7.60;99.90
35531;DHT22;21637;53.352;-6.356;2022-12-05T18:25:59;7.70;99.90
35531;DHT22;21637;53.352;-6.356;2022-12-05T18:28:25;7.70;99.90
35531;DHT22;21637;53.352;-6.356;2022-12-05T18:31:01;7.70;99.90
35531;DHT22;21637;53.352;-6.356;2022-12-05T18:33:26;7.60;99.90
35531;DHT22;21637;53.352;-6.356;2022-12-05T18:35:52;7.60;99.90
35531;DHT22;21637;53.352;-6.356;2022-12-05T18:38:18;7.60;99.90